createdAt,value
2018-12-21T00:01:41.280Z,8.60
2018-12-21T00:04:40.536Z,8.60
2018-12-21T00:07:39.750Z,8.70
2018-12-21T00:10:39.178Z,8.70
2018-12-21T00:13:42.544Z,8.70
2018-12-21T00:16:42.438Z,8.70
2018-12-21T00:19:41.787Z,8.70
2018-12-21T00:22:41.208Z,8.70
2018-12-21T00:25:44.291Z,8.70
2018-12-21T00:28:44.317Z,8.70
2018-12-21T00:31:48.833Z,8.70
2018-12-21T00:34:53.679Z,8.70
2018-12-21T00:37:58.149Z,8.70
2018-12-21T00:41:02.622Z,8.70
2018-12-21T00:44:07.291Z,8.70
2018-12-21T00:47:11.977Z,8.70
2018-12-21T00:50:11.373Z,8.70
2018-12-21T00:53:13.848Z,8.70
2018-12-21T00:59:38.228Z,8.70
2018-12-21T01:02:37.754Z,8.70
2018-12-21T01:05:37.316Z,8.80
2018-12-21T01:08:36.483Z,8.70
2018-12-21T01:11:36.007Z,8.80
2018-12-21T01:14:35.386Z,8.80
2018-12-21T01:17:34.882Z,8.80
2018-12-21T01:20:41.108Z,8.80
2018-12-21T01:23:41.625Z,8.80
2018-12-21T01:26:41.196Z,8.80
2018-12-21T01:29:41.482Z,8.80
2018-12-21T01:32:40.988Z,8.80
2018-12-21T01:35:45.535Z,8.80
2018-12-21T01:38:44.707Z,8.80
2018-12-21T01:41:45.095Z,8.80
2018-12-21T01:44:44.515Z,8.80
2018-12-21T01:47:44.006Z,8.80
2018-12-21T01:50:43.546Z,8.80
2018-12-21T01:53:43.117Z,8.80
2018-12-21T01:56:43.364Z,8.80
2018-12-21T01:59:43.015Z,8.80
2018-12-21T02:02:42.835Z,8.80
2018-12-21T02:05:43.393Z,8.80
2018-12-21T02:08:43.197Z,8.80
2018-12-21T02:11:42.831Z,8.80
2018-12-21T02:14:43.657Z,8.80
2018-12-21T02:17:43.722Z,8.80
2018-12-21T02:20:43.296Z,8.90
2018-12-21T02:23:42.464Z,8.90
2018-12-21T02:26:43.339Z,8.90
2018-12-21T02:29:46.532Z,8.90
2018-12-21T02:32:46.819Z,8.90
2018-12-21T02:35:48.066Z,8.90
2018-12-21T02:38:47.567Z,8.90
2018-12-21T02:41:47.503Z,8.90
2018-12-21T02:44:47.299Z,8.90
2018-12-21T02:47:46.848Z,8.90
2018-12-21T02:50:46.300Z,8.90
2018-12-21T02:53:48.656Z,8.90
2018-12-21T02:56:48.113Z,8.90
2018-12-21T02:59:48.481Z,8.90
2018-12-21T03:02:48.061Z,8.90
2018-12-21T03:05:50.447Z,8.90
2018-12-21T03:08:49.751Z,8.90
2018-12-21T03:11:49.635Z,8.90
2018-12-21T03:14:49.842Z,8.90
2018-12-21T03:17:50.072Z,8.90
2018-12-21T03:20:49.525Z,8.90
2018-12-21T03:23:51.112Z,8.90
2018-12-21T03:26:50.461Z,8.90
2018-12-21T03:29:51.539Z,8.90
2018-12-21T03:32:50.743Z,8.90
2018-12-21T03:35:50.527Z,8.90
2018-12-21T03:38:50.156Z,8.90
2018-12-21T03:41:52.646Z,9.00
2018-12-21T03:44:53.483Z,8.90
2018-12-21T03:47:53.772Z,8.90
2018-12-21T03:50:52.948Z,8.90
2018-12-21T03:53:53.024Z,8.90
2018-12-21T03:56:52.501Z,8.90
2018-12-21T03:59:52.259Z,8.90
2018-12-21T04:02:52.763Z,8.90
2018-12-21T04:05:52.342Z,8.90
2018-12-21T04:08:53.635Z,8.90
2018-12-21T04:11:53.198Z,9.00
2018-12-21T04:14:54.162Z,9.00
2018-12-21T04:17:54.069Z,9.00
2018-12-21T04:20:54.502Z,9.00
2018-12-21T04:23:55.819Z,9.00
2018-12-21T04:33:50.500Z,9.00
2018-12-21T04:36:54.226Z,9.00
2018-12-21T04:39:53.789Z,9.00
2018-12-21T04:42:55.034Z,9.00
2018-12-21T04:45:55.393Z,9.00
2018-12-21T04:48:56.602Z,9.00
2018-12-21T04:51:56.238Z,9.00
2018-12-21T04:54:57.967Z,9.00
2018-12-21T04:57:57.130Z,9.00
2018-12-21T05:00:57.542Z,9.00
2018-12-21T05:03:58.296Z,9.10
2018-12-21T05:06:58.240Z,9.00
2018-12-21T05:09:57.734Z,9.10
2018-12-21T05:12:57.914Z,9.10
2018-12-21T05:15:58.896Z,9.10
2018-12-21T05:18:58.463Z,9.10
2018-12-21T05:21:57.969Z,9.10
2018-12-21T05:24:58.093Z,9.10
2018-12-21T05:27:59.160Z,9.10
2018-12-21T05:30:59.301Z,9.10
2018-12-21T05:33:59.455Z,9.10
2018-12-21T05:36:58.958Z,9.10
2018-12-21T05:40:01.289Z,9.10
2018-12-21T05:43:01.219Z,9.10
2018-12-21T05:46:02.216Z,9.10
2018-12-21T05:49:01.474Z,9.20
2018-12-21T05:52:02.003Z,9.20
2018-12-21T05:55:01.688Z,9.10
2018-12-21T05:58:01.533Z,9.20
2018-12-21T06:01:01.328Z,9.10
2018-12-21T06:04:02.543Z,9.20
2018-12-21T06:07:02.154Z,9.10
2018-12-21T06:10:02.630Z,9.10
2018-12-21T06:13:02.261Z,9.10
2018-12-21T06:16:03.608Z,9.10
2018-12-21T06:19:03.198Z,9.10
2018-12-21T06:22:03.647Z,9.10
2018-12-21T06:25:03.436Z,9.10
2018-12-21T06:28:05.446Z,9.10
2018-12-21T06:31:05.603Z,9.10
2018-12-21T06:34:04.829Z,9.10
2018-12-21T06:37:04.834Z,9.10
2018-12-21T06:40:05.482Z,9.10
2018-12-21T06:43:05.278Z,9.10
2018-12-21T06:46:13.961Z,9.10
2018-12-21T06:49:12.183Z,9.10
2018-12-21T06:52:11.505Z,9.10
2018-12-21T06:55:10.896Z,9.10
2018-12-21T06:58:10.106Z,9.10
2018-12-21T07:01:09.347Z,9.10
2018-12-21T07:04:09.496Z,9.10
2018-12-21T07:07:10.008Z,9.10
2018-12-21T07:10:21.312Z,9.10
2018-12-21T07:13:20.562Z,9.10
2018-12-21T07:16:26.660Z,9.10
2018-12-21T07:19:26.503Z,9.10
2018-12-21T07:22:25.946Z,9.10
2018-12-21T07:25:25.134Z,9.10
2018-12-21T07:32:08.210Z,9.10
2018-12-21T07:35:10.630Z,9.10
2018-12-21T07:38:09.811Z,9.10
2018-12-21T07:41:09.369Z,9.10
2018-12-21T07:44:10.634Z,9.10
2018-12-21T07:47:10.581Z,9.10
2018-12-21T07:50:10.570Z,9.10
2018-12-21T07:53:14.881Z,9.10
2018-12-21T07:56:15.180Z,9.10
2018-12-21T07:59:15.100Z,9.10
2018-12-21T08:02:15.108Z,9.10
2018-12-21T08:05:15.689Z,9.20
2018-12-21T08:08:15.960Z,9.10
2018-12-21T08:11:17.384Z,9.20
2018-12-21T08:14:16.568Z,9.20
2018-12-21T08:17:16.938Z,9.20
2018-12-21T08:20:16.286Z,9.20
2018-12-21T08:23:17.082Z,9.20
2018-12-21T08:26:16.366Z,9.20
2018-12-21T08:29:17.679Z,9.20
2018-12-21T08:32:16.952Z,9.20
2018-12-21T08:35:17.908Z,9.20
2018-12-21T08:38:17.368Z,9.20
2018-12-21T08:41:16.872Z,9.20
2018-12-21T08:44:16.246Z,9.20
2018-12-21T08:47:17.463Z,9.20
2018-12-21T08:50:19.248Z,9.20
2018-12-21T08:53:18.781Z,9.20
2018-12-21T08:56:20.355Z,9.20
2018-12-21T08:59:19.802Z,9.30
2018-12-21T09:02:21.884Z,9.30
2018-12-21T09:05:21.848Z,9.30
2018-12-21T09:08:21.173Z,9.30
2018-12-21T09:11:20.573Z,9.30
2018-12-21T09:14:22.448Z,9.30
2018-12-21T09:17:22.103Z,9.30
2018-12-21T09:20:28.516Z,9.30
2018-12-21T09:23:28.898Z,9.30
2018-12-21T09:26:28.136Z,9.40
2018-12-21T09:29:27.515Z,9.40
2018-12-21T09:32:27.564Z,9.40
2018-12-21T09:35:28.475Z,9.40
2018-12-21T09:38:27.903Z,9.40
2018-12-21T09:41:31.121Z,9.40
2018-12-21T09:44:30.508Z,9.50
2018-12-21T09:47:30.845Z,9.50
2018-12-21T09:50:30.821Z,9.50
2018-12-21T09:53:35.729Z,9.50
2018-12-21T09:56:35.194Z,9.50
2018-12-21T09:59:34.889Z,9.50
2018-12-21T10:02:35.860Z,9.60
2018-12-21T10:05:36.969Z,9.60
2018-12-21T10:08:36.230Z,9.60
2018-12-21T10:11:39.991Z,9.60
2018-12-21T10:14:39.855Z,9.60
2018-12-21T10:17:42.363Z,9.60
2018-12-21T10:20:42.585Z,9.70
2018-12-21T10:23:42.984Z,9.70
2018-12-21T10:26:48.940Z,9.70
2018-12-21T10:29:49.166Z,9.70
2018-12-21T10:32:53.566Z,9.70
2018-12-21T10:35:52.831Z,9.80
2018-12-21T10:38:53.224Z,9.80
2018-12-21T10:41:52.581Z,9.80
2018-12-21T10:44:52.498Z,9.80
2018-12-21T10:47:52.436Z,9.80
2018-12-21T10:50:54.801Z,9.80
2018-12-21T10:53:54.366Z,9.80
2018-12-21T10:56:53.768Z,9.80
2018-12-21T11:03:21.429Z,9.80
2018-12-21T11:06:24.663Z,9.90
2018-12-21T11:09:24.569Z,9.90
2018-12-21T11:12:26.393Z,9.90
2018-12-21T11:15:26.734Z,9.90
2018-12-21T11:18:29.306Z,9.90
2018-12-21T11:21:28.552Z,9.90
2018-12-21T11:24:35.414Z,9.90
2018-12-21T11:27:30.439Z,9.90
2018-12-21T11:30:30.972Z,9.90
2018-12-21T11:33:30.343Z,9.90
2018-12-21T11:36:30.670Z,9.90
2018-12-21T11:39:30.122Z,10.00
2018-12-21T11:42:29.936Z,9.90
2018-12-21T11:45:29.751Z,10.00
2018-12-21T11:51:26.096Z,10.00
2018-12-21T11:54:26.416Z,10.00
2018-12-21T11:57:26.306Z,10.00
2018-12-21T12:00:25.628Z,10.00
2018-12-21T12:03:25.359Z,10.00
2018-12-21T12:06:27.834Z,10.00
2018-12-21T12:09:27.561Z,10.00
2018-12-21T12:12:29.366Z,10.10
2018-12-21T12:15:30.320Z,10.10
2018-12-21T12:18:29.881Z,10.10
2018-12-21T12:21:33.891Z,10.10
2018-12-21T12:24:33.843Z,10.10
2018-12-21T12:27:33.824Z,10.10
2018-12-21T12:30:34.564Z,10.10
2018-12-21T12:33:33.989Z,10.10
2018-12-21T12:36:34.490Z,10.10
2018-12-21T12:39:34.463Z,10.10
2018-12-21T12:42:35.366Z,10.10
2018-12-21T12:45:34.753Z,10.10
2018-12-21T12:48:34.002Z,10.10
2018-12-21T12:51:33.342Z,10.10
2018-12-21T12:54:32.855Z,10.10
2018-12-21T12:57:32.604Z,10.10
2018-12-21T13:00:32.943Z,10.10
2018-12-21T13:03:32.491Z,10.10
2018-12-21T13:06:32.906Z,10.20
2018-12-21T13:09:32.315Z,10.20
2018-12-21T13:12:31.886Z,10.20
2018-12-21T13:15:34.523Z,10.20
2018-12-21T13:18:35.918Z,10.20
2018-12-21T13:21:37.132Z,10.20
2018-12-21T13:24:36.477Z,10.20
2018-12-21T13:27:37.574Z,10.20
2018-12-21T13:30:37.432Z,10.20
2018-12-21T13:33:39.722Z,10.20
2018-12-21T13:36:39.391Z,10.20
2018-12-21T13:39:39.354Z,10.20
2018-12-21T13:42:38.698Z,10.20
2018-12-21T13:45:39.603Z,10.30
2018-12-21T13:48:38.907Z,10.30
2018-12-21T13:51:40.486Z,10.30
2018-12-21T13:54:40.696Z,10.30
2018-12-21T13:57:45.490Z,10.30
2018-12-21T14:00:45.015Z,10.30
2018-12-21T14:03:48.059Z,10.30
2018-12-21T14:06:47.341Z,10.30
2018-12-21T14:09:46.908Z,10.30
2018-12-21T14:12:46.348Z,10.40
2018-12-21T14:15:49.605Z,10.40
2018-12-21T14:18:48.968Z,10.40
2018-12-21T14:21:49.213Z,10.40
2018-12-21T14:24:48.395Z,10.40
2018-12-21T14:27:48.467Z,10.40
2018-12-21T14:30:47.650Z,10.40
2018-12-21T14:33:49.392Z,10.40
2018-12-21T14:36:48.929Z,10.40
2018-12-21T14:39:48.234Z,10.40
2018-12-21T14:42:47.464Z,10.40
2018-12-21T14:45:46.886Z,10.40
2018-12-21T14:48:46.615Z,10.40
2018-12-21T14:51:46.039Z,10.40
2018-12-21T14:54:52.178Z,10.40
2018-12-21T14:57:52.606Z,10.40
2018-12-21T15:00:51.954Z,10.40
2018-12-21T15:04:05.044Z,10.40
2018-12-21T15:07:04.844Z,10.50
2018-12-21T15:10:07.491Z,10.50
2018-12-21T15:13:07.330Z,10.60
2018-12-21T15:16:08.441Z,10.60
2018-12-21T15:19:08.568Z,10.60
2018-12-21T15:22:10.145Z,10.60
2018-12-21T15:25:09.486Z,10.60
2018-12-21T15:28:12.704Z,10.60
2018-12-21T15:31:11.966Z,10.60
2018-12-21T15:34:12.076Z,10.60
2018-12-21T15:37:11.498Z,10.60
2018-12-21T15:40:12.803Z,10.60
2018-12-21T15:43:12.897Z,10.60
2018-12-21T15:46:12.306Z,10.60
2018-12-21T15:49:12.977Z,10.60
2018-12-21T15:52:12.394Z,10.60
2018-12-21T15:55:11.834Z,10.70
2018-12-21T15:58:11.214Z,10.70
2018-12-21T16:01:16.681Z,10.70
2018-12-21T16:04:16.745Z,10.70
2018-12-21T16:07:18.416Z,10.70
2018-12-21T16:10:17.813Z,10.70
2018-12-21T16:13:19.818Z,10.70
2018-12-21T16:16:19.718Z,10.70
2018-12-21T16:19:23.208Z,10.70
2018-12-21T16:22:23.456Z,10.70
2018-12-21T16:25:22.761Z,10.70
2018-12-21T16:28:22.377Z,10.70
2018-12-21T16:31:22.683Z,10.70
2018-12-21T16:34:27.047Z,10.80
2018-12-21T16:37:26.276Z,10.80
2018-12-21T16:40:25.635Z,10.80
2018-12-21T16:43:24.927Z,10.80
2018-12-21T16:46:24.987Z,10.80
2018-12-21T16:49:25.446Z,10.80
2018-12-21T16:52:25.688Z,10.80
2018-12-21T16:55:25.292Z,10.80
2018-12-21T16:58:24.791Z,10.80
2018-12-21T17:01:28.735Z,10.80
2018-12-21T17:04:29.530Z,10.80
2018-12-21T17:07:30.870Z,10.80
2018-12-21T17:10:31.005Z,10.80
2018-12-21T17:13:30.593Z,10.80
2018-12-21T17:16:36.156Z,10.90
2018-12-21T17:19:35.489Z,10.90
2018-12-21T17:22:34.985Z,10.90
2018-12-21T17:25:34.667Z,10.90
2018-12-21T17:28:36.899Z,10.90
2018-12-21T17:31:38.298Z,10.90
2018-12-21T17:34:38.686Z,10.90
2018-12-21T17:37:41.054Z,10.90
2018-12-21T17:40:40.274Z,10.90
2018-12-21T17:43:41.612Z,10.90
2018-12-21T17:46:43.387Z,10.90
2018-12-21T17:49:43.311Z,10.90
2018-12-21T17:52:42.799Z,10.90
2018-12-21T17:55:42.698Z,11.00
2018-12-21T17:58:42.723Z,11.00
2018-12-21T18:01:42.602Z,11.00
2018-12-21T18:04:46.039Z,11.00
2018-12-21T18:07:46.993Z,11.00
2018-12-21T18:10:46.826Z,11.00
2018-12-21T18:13:46.297Z,11.00
2018-12-21T18:16:47.837Z,11.00
2018-12-21T18:19:47.127Z,11.00
2018-12-21T18:22:51.096Z,11.00
2018-12-21T18:25:50.639Z,11.00
2018-12-21T18:28:52.714Z,11.00
2018-12-21T18:32:13.499Z,11.00
2018-12-21T18:35:19.425Z,11.10
2018-12-21T18:38:26.686Z,11.10
2018-12-21T18:41:26.177Z,11.10
2018-12-21T18:44:28.040Z,11.10
2018-12-21T18:47:27.350Z,11.10
2018-12-21T18:50:33.578Z,11.10
2018-12-21T18:53:32.869Z,11.10
2018-12-21T18:56:36.871Z,11.10
2018-12-21T18:59:36.928Z,11.10
2018-12-21T19:02:44.927Z,11.10
2018-12-21T19:05:45.303Z,11.10
2018-12-21T19:08:45.036Z,11.10
2018-12-21T19:11:51.365Z,11.20
2018-12-21T19:14:50.614Z,11.10
2018-12-21T19:17:51.016Z,11.20
2018-12-21T19:20:58.572Z,11.20
2018-12-21T19:23:58.859Z,11.20
2018-12-21T19:27:01.335Z,11.20
2018-12-21T19:30:01.360Z,11.20
2018-12-21T19:33:04.758Z,11.20
2018-12-21T19:36:04.241Z,11.20
2018-12-21T19:39:08.799Z,11.20
2018-12-21T19:42:08.488Z,11.20
2018-12-21T19:45:10.409Z,11.20
2018-12-21T19:48:09.848Z,11.20
2018-12-21T19:51:10.663Z,11.30
2018-12-21T19:54:13.671Z,11.20
2018-12-21T19:57:16.478Z,11.30
2018-12-21T20:00:16.595Z,11.30
2018-12-21T20:03:17.092Z,11.30
2018-12-21T20:06:16.401Z,11.30
2018-12-21T20:09:15.867Z,11.30
2018-12-21T20:12:15.260Z,11.30
2018-12-21T20:15:15.963Z,11.30
2018-12-21T20:18:15.253Z,11.30
2018-12-21T20:21:14.708Z,11.30
2018-12-21T20:24:16.005Z,11.30
2018-12-21T20:27:17.815Z,11.30
2018-12-21T20:30:19.903Z,11.30
2018-12-21T20:37:06.871Z,11.40
2018-12-21T20:40:08.545Z,11.40
2018-12-21T20:43:08.387Z,11.40
2018-12-21T20:46:07.796Z,11.40
2018-12-21T20:49:07.271Z,11.40
2018-12-21T20:52:06.856Z,11.40
2018-12-21T20:55:07.655Z,11.40
2018-12-21T20:58:20.504Z,11.40
2018-12-21T21:01:19.778Z,11.40
2018-12-21T21:04:21.112Z,11.40
2018-12-21T21:07:20.852Z,11.40
2018-12-21T21:10:20.074Z,11.40
2018-12-21T21:13:26.668Z,11.40
2018-12-21T21:16:25.959Z,11.40
2018-12-21T21:19:32.470Z,11.40
2018-12-21T21:22:32.568Z,11.40
2018-12-21T21:25:35.857Z,11.40
2018-12-21T21:28:35.289Z,11.40
2018-12-21T21:31:37.292Z,11.40
2018-12-21T21:38:01.954Z,11.40
2018-12-21T21:41:01.312Z,11.40
2018-12-21T21:44:01.547Z,11.40
2018-12-21T21:47:01.057Z,11.40
2018-12-21T21:50:00.627Z,11.40
2018-12-21T21:53:00.129Z,11.40
2018-12-21T21:56:03.766Z,11.40
2018-12-21T21:59:03.750Z,11.40
2018-12-21T22:02:03.629Z,11.40
2018-12-21T22:05:08.921Z,11.40
2018-12-21T22:08:10.304Z,11.40
2018-12-21T22:11:11.311Z,11.40
2018-12-21T22:14:10.876Z,11.40
2018-12-21T22:17:12.561Z,11.40
2018-12-21T22:20:12.950Z,11.40
2018-12-21T22:23:13.325Z,11.40
2018-12-21T22:26:12.792Z,11.50
2018-12-21T22:29:13.677Z,11.40
2018-12-21T22:32:14.058Z,11.50
2018-12-21T22:35:18.973Z,11.50
2018-12-21T22:38:18.467Z,11.40
2018-12-21T22:41:20.418Z,11.40
2018-12-21T22:44:21.829Z,11.50
2018-12-21T22:47:21.705Z,11.40
2018-12-21T22:50:21.221Z,11.50
2018-12-21T22:53:20.571Z,11.50
2018-12-21T22:56:21.183Z,11.50
2018-12-21T22:59:22.524Z,11.50
2018-12-21T23:02:21.874Z,11.50
2018-12-21T23:05:21.781Z,11.50
2018-12-21T23:08:22.651Z,11.50
2018-12-21T23:11:22.026Z,11.50
2018-12-21T23:14:22.507Z,11.50
2018-12-21T23:17:21.744Z,11.50
2018-12-21T23:20:21.660Z,11.50
2018-12-21T23:23:20.946Z,11.50
2018-12-21T23:26:22.845Z,11.50
2018-12-21T23:29:22.985Z,11.50
2018-12-21T23:32:23.371Z,11.50
2018-12-21T23:35:22.652Z,11.50
2018-12-21T23:38:22.170Z,11.50
2018-12-21T23:41:21.702Z,11.50
2018-12-21T23:44:21.185Z,11.50
2018-12-21T23:47:21.213Z,11.50
2018-12-21T23:50:20.931Z,11.50
2018-12-21T23:53:20.663Z,11.50
2018-12-21T23:56:23.088Z,11.50
2018-12-21T23:59:22.689Z,11.50
